Time;durP1;ratioP1;P1;durP2;ratioP2;P2;SDS_P1;SDS_P2;PMS_P1;PMS_P2;Temp;Humidity;BMP_temperature;BMP_pressure;BME280_temperature;BME280_humidity;BME280_pressure;Samples;Min_cycle;Max_cycle;Signal;HPM_P1;HPM_P2
2022/07/25 00:02:14;;;;;;;;;;;22.30;99.90;;;;;;5138669;27;19923;-81
2022/07/25 00:04:41;;;;;;;;;;;22.30;99.90;;;;;;5138794;27;20018;-80
2022/07/25 00:07:06;;;;;;;;;;;22.20;99.90;;;;;;5121685;27;20025;-81
2022/07/25 00:09:32;;;;;;;;;;;22.20;99.90;;;;;;5121415;27;19970;-81
2022/07/25 00:11:58;;;;;;;;;;;22.20;99.90;;;;;;5138384;27;19980;-81
2022/07/25 00:14:23;;;;;;;;;;;22.10;99.90;;;;;;5138500;27;20425;-80
2022/07/25 00:16:49;;;;;;;;;;;22.10;99.90;;;;;;5117572;27;19923;-81
2022/07/25 00:19:14;;;;;;;;;;;22.20;99.90;;;;;;5134955;27;19923;-81
2022/07/25 00:21:40;;;;;;;;;;;22.10;99.90;;;;;;5117929;27;19930;-80
2022/07/25 00:24:06;;;;;;;;;;;22.20;99.90;;;;;;5117939;27;20314;-80
2022/07/25 00:26:31;;;;;;;;;;;22.10;99.90;;;;;;5134515;27;19947;-80
2022/07/25 00:28:57;;;;;;;;;;;22.00;99.90;;;;;;5134779;27;19927;-81
2022/07/25 00:31:22;;;;;;;;;;;22.00;99.90;;;;;;5116977;27;19930;-81
2022/07/25 00:33:48;;;;;;;;;;;22.00;99.90;;;;;;5134831;27;20367;-80
2022/07/25 00:36:13;;;;;;;;;;;22.00;99.90;;;;;;5134591;27;19930;-81
2022/07/25 00:38:39;;;;;;;;;;;21.90;99.90;;;;;;5134914;27;19924;-80
2022/07/25 00:41:04;;;;;;;;;;;21.90;99.90;;;;;;5134695;27;19930;-81
2022/07/25 00:43:30;;;;;;;;;;;21.80;99.90;;;;;;5134498;27;19924;-80
2022/07/25 00:45:57;;;;;;;;;;;21.80;99.90;;;;;;5134564;27;19923;-80
2022/07/25 00:48:23;;;;;;;;;;;21.70;99.90;;;;;;5117328;27;19930;-80
2022/07/25 00:50:49;;;;;;;;;;;21.70;99.90;;;;;;5134303;27;19923;-80
2022/07/25 00:53:15;;;;;;;;;;;21.70;99.90;;;;;;5117147;27;19972;-82
2022/07/25 00:55:40;;;;;;;;;;;21.70;99.90;;;;;;5134640;27;19924;-80
2022/07/25 00:58:06;;;;;;;;;;;21.60;99.90;;;;;;5117260;27;20364;-81
2022/07/25 01:00:32;;;;;;;;;;;21.60;99.90;;;;;;5116703;27;19927;-80
2022/07/25 01:02:57;;;;;;;;;;;21.60;99.90;;;;;;5134391;27;19928;-81
2022/07/25 01:05:23;;;;;;;;;;;21.50;99.90;;;;;;5117021;27;19923;-80
2022/07/25 01:07:49;;;;;;;;;;;21.50;99.90;;;;;;5117098;27;19946;-80
2022/07/25 01:10:15;;;;;;;;;;;21.50;99.90;;;;;;5100058;27;20004;-80
2022/07/25 01:12:48;;;;;;;;;;;21.50;99.90;;;;;;5116843;27;19932;-80
2022/07/25 01:15:14;;;;;;;;;;;21.50;99.90;;;;;;5134099;27;19984;-80
2022/07/25 01:17:40;;;;;;;;;;;21.40;99.90;;;;;;5116351;27;19923;-80
2022/07/25 01:20:12;;;;;;;;;;;21.40;99.90;;;;;;5116979;27;20018;-80
2022/07/25 01:22:37;;;;;;;;;;;21.40;99.90;;;;;;5133855;27;19939;-80
2022/07/25 01:25:03;;;;;;;;;;;21.40;99.90;;;;;;5134008;27;19924;-80
2022/07/25 01:27:30;;;;;;;;;;;21.30;99.90;;;;;;5116549;27;19978;-80
2022/07/25 01:29:55;;;;;;;;;;;21.30;99.90;;;;;;5133986;27;19923;-80
2022/07/25 01:32:21;;;;;;;;;;;21.30;99.90;;;;;;5116147;27;20436;-80
2022/07/25 01:34:46;;;;;;;;;;;21.30;99.90;;;;;;5116703;27;19969;-80
2022/07/25 01:37:12;;;;;;;;;;;21.20;99.90;;;;;;5116557;27;19924;-80
2022/07/25 01:39:37;;;;;;;;;;;21.30;99.90;;;;;;5116373;28;19927;-80
2022/07/25 01:42:03;;;;;;;;;;;21.30;99.90;;;;;;5132792;27;19988;-80
2022/07/25 01:44:28;;;;;;;;;;;21.30;99.90;;;;;;5116394;28;19923;-80
2022/07/25 01:46:54;;;;;;;;;;;21.30;99.90;;;;;;5116517;28;20355;-80
2022/07/25 01:49:20;;;;;;;;;;;21.30;99.90;;;;;;5133718;28;19924;-80
2022/07/25 01:51:45;;;;;;;;;;;21.30;99.90;;;;;;5116060;28;19923;-80
2022/07/25 01:54:11;;;;;;;;;;;21.30;99.90;;;;;;5133211;28;20010;-80
2022/07/25 01:56:41;;;;;;;;;;;21.20;99.90;;;;;;5099283;28;19924;-80
2022/07/25 01:59:06;;;;;;;;;;;21.20;99.90;;;;;;5116402;28;20371;-80
2022/07/25 02:01:32;;;;;;;;;;;21.30;99.90;;;;;;5116218;28;20020;-80
2022/07/25 02:03:58;;;;;;;;;;;21.30;99.90;;;;;;5116329;28;19927;-80
2022/07/25 02:06:23;;;;;;;;;;;21.20;99.90;;;;;;5133273;28;19931;-89
2022/07/25 02:08:49;;;;;;;;;;;21.20;99.90;;;;;;5116253;28;19930;-80
2022/07/25 02:11:14;;;;;;;;;;;21.20;99.90;;;;;;5099071;28;19923;-80
2022/07/25 02:13:40;;;;;;;;;;;21.10;99.90;;;;;;5116060;28;20336;-80
2022/07/25 02:16:05;;;;;;;;;;;21.20;99.90;;;;;;5115947;28;19924;-80
2022/07/25 02:18:31;;;;;;;;;;;21.20;99.90;;;;;;5116023;28;20359;-80
2022/07/25 02:20:57;;;;;;;;;;;21.20;99.90;;;;;;5098883;28;19930;-80
2022/07/25 02:23:22;;;;;;;;;;;21.20;99.90;;;;;;5133320;28;19924;-80
2022/07/25 02:25:48;;;;;;;;;;;21.20;99.90;;;;;;5133042;28;20389;-80
2022/07/25 02:28:13;;;;;;;;;;;21.20;99.90;;;;;;5133195;28;20007;-80
2022/07/25 02:30:39;;;;;;;;;;;21.20;99.90;;;;;;5098911;28;19923;-80
2022/07/25 02:33:04;;;;;;;;;;;21.10;99.90;;;;;;5133131;28;20401;-80
2022/07/25 02:35:30;;;;;;;;;;;21.10;99.90;;;;;;5115820;28;19934;-80
2022/07/25 02:37:56;;;;;;;;;;;21.00;99.90;;;;;;5133167;28;20276;-81
2022/07/25 02:40:21;;;;;;;;;;;21.00;99.90;;;;;;5133086;28;19924;-80
2022/07/25 02:42:47;;;;;;;;;;;20.90;99.90;;;;;;5115775;28;20353;-80
2022/07/25 02:45:13;;;;;;;;;;;20.90;99.90;;;;;;5098921;28;19930;-80
2022/07/25 02:47:38;;;;;;;;;;;20.90;99.90;;;;;;5115458;28;19923;-80
2022/07/25 02:50:04;;;;;;;;;;;20.90;99.90;;;;;;5115634;28;19970;-80
2022/07/25 02:52:30;;;;;;;;;;;20.80;99.90;;;;;;5098818;27;19949;-81
2022/07/25 02:54:55;;;;;;;;;;;20.80;99.90;;;;;;5119673;27;19931;-80
2022/07/25 02:57:21;;;;;;;;;;;20.70;99.90;;;;;;5102322;27;19930;-80
2022/07/25 02:59:46;;;;;;;;;;;20.70;99.90;;;;;;5136516;27;19983;-80
2022/07/25 03:02:12;;;;;;;;;;;20.70;99.90;;;;;;5119504;27;19930;-80
2022/07/25 03:04:37;;;;;;;;;;;20.70;99.90;;;;;;5101979;27;20298;-81
2022/07/25 03:07:03;;;;;;;;;;;20.70;99.90;;;;;;5119386;27;19923;-80
2022/07/25 03:09:28;;;;;;;;;;;20.70;99.90;;;;;;5136572;27;20476;-80
2022/07/25 03:11:54;;;;;;;;;;;20.60;99.90;;;;;;5118874;27;20398;-81
2022/07/25 03:14:20;;;;;;;;;;;20.60;99.90;;;;;;5102305;27;19930;-80
2022/07/25 03:16:45;;;;;;;;;;;20.60;99.90;;;;;;5135626;27;19923;-80
2022/07/25 03:19:12;;;;;;;;;;;20.60;99.90;;;;;;5119152;27;19928;-80
2022/07/25 03:21:38;;;;;;;;;;;20.60;99.90;;;;;;5102205;27;20052;-80
2022/07/25 03:24:03;;;;;;;;;;;20.60;99.90;;;;;;5119119;27;20017;-80
2022/07/25 03:26:29;;;;;;;;;;;20.60;99.90;;;;;;5119007;27;20363;-80
2022/07/25 03:28:54;;;;;;;;;;;20.50;99.90;;;;;;5135932;27;20363;-80
2022/07/25 03:31:20;;;;;;;;;;;20.50;99.90;;;;;;5118760;27;19931;-80
2022/07/25 03:33:45;;;;;;;;;;;20.50;99.90;;;;;;5118765;27;19923;-80
2022/07/25 03:36:11;;;;;;;;;;;20.50;99.90;;;;;;5135982;27;19930;-80
2022/07/25 03:38:37;;;;;;;;;;;20.50;99.90;;;;;;5135753;27;19981;-80
2022/07/25 03:41:02;;;;;;;;;;;20.50;99.90;;;;;;5135926;27;19924;-80
2022/07/25 03:43:29;;;;;;;;;;;20.60;99.90;;;;;;5135779;27;19950;-80
2022/07/25 03:45:55;;;;;;;;;;;20.60;99.90;;;;;;5135651;27;19978;-80
2022/07/25 03:48:20;;;;;;;;;;;20.60;99.90;;;;;;5118645;27;19996;-80
2022/07/25 03:50:46;;;;;;;;;;;20.60;99.90;;;;;;5117913;27;19931;-80
2022/07/25 03:53:11;;;;;;;;;;;20.50;99.90;;;;;;5118488;27;19924;-80
2022/07/25 03:55:38;;;;;;;;;;;20.60;99.90;;;;;;5135536;27;19924;-88
2022/07/25 03:58:04;;;;;;;;;;;20.50;99.90;;;;;;5135618;27;19962;-80
2022/07/25 04:00:29;;;;;;;;;;;20.40;99.90;;;;;;5135498;27;20016;-80
2022/07/25 04:02:55;;;;;;;;;;;20.40;99.90;;;;;;5118120;27;19930;-80
2022/07/25 04:05:20;;;;;;;;;;;20.30;99.90;;;;;;5117368;27;20328;-80
2022/07/25 04:07:46;;;;;;;;;;;20.30;99.90;;;;;;5118176;27;19923;-80
2022/07/25 04:10:11;;;;;;;;;;;20.30;99.90;;;;;;5118051;27;19923;-80
2022/07/25 04:12:37;;;;;;;;;;;20.20;99.90;;;;;;5117698;27;20298;-80
2022/07/25 04:15:03;;;;;;;;;;;20.20;99.90;;;;;;5135012;27;19927;-80
2022/07/25 04:17:29;;;;;;;;;;;20.20;99.90;;;;;;5100731;27;20066;-80
2022/07/25 04:19:54;;;;;;;;;;;20.20;99.90;;;;;;5134960;27;19963;-80
2022/07/25 04:22:21;;;;;;;;;;;20.20;99.90;;;;;;5135113;27;19923;-80
2022/07/25 04:24:46;;;;;;;;;;;20.20;99.90;;;;;;5117791;27;19924;-81
2022/07/25 04:27:12;;;;;;;;;;;20.20;99.90;;;;;;5117892;27;19983;-80
2022/07/25 04:29:38;;;;;;;;;;;20.20;99.90;;;;;;5135057;27;20259;-80
2022/07/25 04:32:04;;;;;;;;;;;20.20;99.90;;;;;;5134347;27;19927;-80
2022/07/25 04:34:29;;;;;;;;;;;20.20;99.90;;;;;;5100699;27;20031;-80
2022/07/25 04:36:55;;;;;;;;;;;20.30;99.90;;;;;;5134643;27;20052;-81
2022/07/25 04:39:20;;;;;;;;;;;20.30;99.90;;;;;;5117585;27;20256;-80
2022/07/25 04:41:46;;;;;;;;;;;20.40;99.90;;;;;;5117414;27;19946;-80
2022/07/25 04:44:12;;;;;;;;;;;20.40;99.90;;;;;;5117268;27;20014;-80
2022/07/25 04:46:37;;;;;;;;;;;20.40;99.90;;;;;;5134331;27;19923;-80
2022/07/25 04:49:03;;;;;;;;;;;20.50;99.90;;;;;;5134525;27;20030;-80
2022/07/25 04:51:28;;;;;;;;;;;20.50;99.90;;;;;;5117239;27;19931;-80
2022/07/25 04:53:54;;;;;;;;;;;20.60;99.90;;;;;;5134412;27;20277;-81
2022/07/25 04:56:19;;;;;;;;;;;20.50;99.90;;;;;;5100398;27;20034;-80
2022/07/25 04:58:45;;;;;;;;;;;20.60;99.90;;;;;;5100232;27;19924;-87
2022/07/25 05:01:10;;;;;;;;;;;20.60;99.90;;;;;;5134424;27;19949;-80
2022/07/25 05:03:36;;;;;;;;;;;20.60;99.90;;;;;;5117171;27;19924;-80
2022/07/25 05:06:02;;;;;;;;;;;20.60;99.90;;;;;;5134086;27;20264;-80
2022/07/25 05:08:27;;;;;;;;;;;20.60;99.90;;;;;;5117111;27;19981;-80
2022/07/25 05:10:53;;;;;;;;;;;20.60;99.90;;;;;;5133827;27;20375;-80
2022/07/25 05:13:19;;;;;;;;;;;20.60;99.90;;;;;;5134109;27;19923;-80
2022/07/25 05:15:44;;;;;;;;;;;20.70;99.90;;;;;;5116635;27;19929;-80
2022/07/25 05:18:10;;;;;;;;;;;20.70;99.90;;;;;;5133946;27;19923;-80
2022/07/25 05:20:35;;;;;;;;;;;20.80;99.90;;;;;;5134087;27;19923;-80
2022/07/25 05:23:01;;;;;;;;;;;20.80;99.90;;;;;;5133481;27;20068;-80
2022/07/25 05:25:27;;;;;;;;;;;20.80;99.90;;;;;;5134037;27;19923;-80
2022/07/25 05:27:54;;;;;;;;;;;20.90;99.90;;;;;;5133737;27;19923;-81
2022/07/25 05:30:20;;;;;;;;;;;20.90;99.90;;;;;;5116661;27;19931;-80
2022/07/25 05:32:46;;;;;;;;;;;20.90;99.90;;;;;;5099840;27;19923;-80
2022/07/25 05:35:11;;;;;;;;;;;20.90;99.90;;;;;;5116457;27;19924;-80
2022/07/25 05:37:37;;;;;;;;;;;20.90;99.90;;;;;;5116670;27;19927;-80
2022/07/25 05:40:04;;;;;;;;;;;21.00;99.90;;;;;;5116426;28;19927;-80
2022/07/25 05:42:29;;;;;;;;;;;21.10;99.90;;;;;;5116812;27;19931;-80
2022/07/25 05:44:55;;;;;;;;;;;21.20;99.90;;;;;;5133538;27;19924;-81
2022/07/25 05:47:20;;;;;;;;;;;21.40;99.90;;;;;;5099634;27;20010;-80
2022/07/25 05:49:46;;;;;;;;;;;21.50;99.90;;;;;;5116432;28;19923;-80
2022/07/25 05:52:12;;;;;;;;;;;21.70;99.90;;;;;;5115996;28;20358;-80
2022/07/25 05:54:37;;;;;;;;;;;21.80;99.90;;;;;;5133550;27;19975;-80
2022/07/25 05:57:03;;;;;;;;;;;21.90;99.90;;;;;;5116264;28;20268;-80
2022/07/25 05:59:28;;;;;;;;;;;22.00;99.90;;;;;;5116369;28;20301;-80
2022/07/25 06:01:54;;;;;;;;;;;22.00;99.90;;;;;;5115939;28;19931;-81
2022/07/25 06:04:19;;;;;;;;;;;22.00;99.90;;;;;;5116442;28;19923;-80
2022/07/25 06:06:50;;;;;;;;;;;22.00;99.90;;;;;;5116303;28;20247;-80
2022/07/25 06:09:16;;;;;;;;;;;22.00;99.90;;;;;;5133205;28;19969;-81
2022/07/25 06:11:41;;;;;;;;;;;22.00;99.90;;;;;;5133165;28;19965;-80
2022/07/25 06:14:08;;;;;;;;;;;22.10;99.90;;;;;;5116132;28;19924;-80
2022/07/25 06:16:33;;;;;;;;;;;22.10;99.90;;;;;;5115778;28;19979;-80
2022/07/25 06:18:59;;;;;;;;;;;22.10;99.90;;;;;;5099098;28;19931;-81
2022/07/25 06:21:24;;;;;;;;;;;22.20;99.90;;;;;;5116209;28;19924;-80
2022/07/25 06:23:50;;;;;;;;;;;22.20;99.90;;;;;;5098807;28;19968;-80
2022/07/25 06:26:15;;;;;;;;;;;22.30;99.90;;;;;;5098984;28;19927;-80
2022/07/25 06:28:41;;;;;;;;;;;22.30;99.90;;;;;;5118604;27;19923;-80
2022/07/25 06:31:07;;;;;;;;;;;22.30;99.90;;;;;;5137039;27;19924;-80
2022/07/25 06:33:33;;;;;;;;;;;22.30;99.90;;;;;;5120117;27;19927;-80
2022/07/25 06:35:58;;;;;;;;;;;22.30;99.90;;;;;;5137046;27;19927;-81
2022/07/25 06:38:24;;;;;;;;;;;22.30;99.90;;;;;;5136880;27;19924;-80
2022/07/25 06:40:49;;;;;;;;;;;22.30;99.90;;;;;;5120078;27;19949;-80
2022/07/25 06:43:15;;;;;;;;;;;22.40;99.90;;;;;;5136896;27;20278;-80
2022/07/25 06:45:45;;;;;;;;;;;22.40;99.90;;;;;;5137240;27;19924;-81
2022/07/25 06:48:11;;;;;;;;;;;22.40;99.90;;;;;;5103344;27;19945;-80
2022/07/25 06:50:37;;;;;;;;;;;22.40;99.90;;;;;;5136900;27;19924;-80
2022/07/25 06:53:02;;;;;;;;;;;22.60;99.90;;;;;;5119521;27;19924;-81
2022/07/25 06:55:28;;;;;;;;;;;22.70;99.90;;;;;;5102672;27;19970;-80
2022/07/25 06:57:54;;;;;;;;;;;22.80;99.90;;;;;;5119782;27;19930;-81
2022/07/25 07:00:20;;;;;;;;;;;22.80;99.90;;;;;;5119447;27;20382;-80
2022/07/25 07:02:55;;;;;;;;;;;22.80;99.90;;;;;;5136798;27;19924;-80
2022/07/25 07:05:20;;;;;;;;;;;22.90;99.90;;;;;;5136503;27;19967;-80
2022/07/25 07:07:46;;;;;;;;;;;22.80;99.90;;;;;;5119656;27;20000;-80
2022/07/25 07:10:12;;;;;;;;;;;22.80;99.90;;;;;;5119208;27;20374;-81
2022/07/25 07:12:37;;;;;;;;;;;22.70;99.90;;;;;;5119251;27;20052;-80
2022/07/25 07:15:03;;;;;;;;;;;22.70;99.90;;;;;;5136066;27;20010;-82
2022/07/25 07:17:29;;;;;;;;;;;22.60;99.90;;;;;;5118596;27;19924;-81
2022/07/25 07:19:54;;;;;;;;;;;22.50;99.90;;;;;;5119210;27;19929;-81
2022/07/25 07:22:20;;;;;;;;;;;22.40;99.90;;;;;;5135790;27;19984;-81
2022/07/25 07:24:45;;;;;;;;;;;22.40;99.90;;;;;;5102253;27;20014;-80
2022/07/25 07:27:11;;;;;;;;;;;22.30;99.90;;;;;;5118934;27;19927;-80
2022/07/25 07:29:36;;;;;;;;;;;22.10;99.90;;;;;;5136096;27;20010;-80
2022/07/25 07:32:02;;;;;;;;;;;22.10;99.90;;;;;;5118752;27;19924;-80
2022/07/25 07:34:28;;;;;;;;;;;22.00;99.90;;;;;;5135898;27;19927;-80
2022/07/25 07:36:53;;;;;;;;;;;21.90;99.90;;;;;;5118909;27;19927;-81
2022/07/25 07:39:19;;;;;;;;;;;21.70;99.90;;;;;;5134601;27;20359;-81
2022/07/25 07:41:44;;;;;;;;;;;21.60;99.90;;;;;;5118506;27;20297;-81
2022/07/25 07:44:10;;;;;;;;;;;21.50;99.90;;;;;;5135751;27;19924;-81
2022/07/25 07:46:36;;;;;;;;;;;21.40;99.90;;;;;;5135864;27;20352;-80
2022/07/25 07:49:02;;;;;;;;;;;21.30;99.90;;;;;;5101616;27;19966;-81
2022/07/25 07:51:27;;;;;;;;;;;21.30;99.90;;;;;;5135421;27;20259;-80
2022/07/25 07:56:37;;;;;;;;;;;21.20;99.90;;;;;;5135707;27;20017;-80
2022/07/25 07:59:03;;;;;;;;;;;21.30;99.90;;;;;;5118407;27;19959;-80
2022/07/25 08:01:29;;;;;;;;;;;21.20;99.90;;;;;;5118197;27;19924;-80
2022/07/25 08:03:55;;;;;;;;;;;21.20;99.90;;;;;;5135525;27;19988;-81
2022/07/25 08:06:20;;;;;;;;;;;21.30;99.90;;;;;;5134968;27;19980;-80
2022/07/25 08:08:46;;;;;;;;;;;21.30;99.90;;;;;;5135514;27;20018;-80
2022/07/25 08:11:11;;;;;;;;;;;21.40;99.90;;;;;;5135016;27;19924;-81
2022/07/25 08:13:37;;;;;;;;;;;21.50;99.90;;;;;;5118184;27;19924;-80
2022/07/25 08:16:03;;;;;;;;;;;21.70;99.90;;;;;;5117880;27;20359;-81
2022/07/25 08:18:30;;;;;;;;;;;21.80;99.90;;;;;;5135055;27;19950;-80
2022/07/25 08:20:56;;;;;;;;;;;21.90;99.90;;;;;;5117732;27;20356;-81
2022/07/25 08:23:21;;;;;;;;;;;22.00;99.90;;;;;;5117889;27;19972;-80
2022/07/25 08:25:47;;;;;;;;;;;22.10;99.90;;;;;;5117604;27;19953;-80
2022/07/25 08:28:13;;;;;;;;;;;22.30;99.90;;;;;;5134599;27;19930;-81
2022/07/25 08:30:39;;;;;;;;;;;22.40;99.90;;;;;;5117723;27;20294;-80
2022/07/25 08:33:06;;;;;;;;;;;22.60;99.90;;;;;;5117767;27;19930;-80
2022/07/25 08:35:33;;;;;;;;;;;22.70;99.90;;;;;;5134702;27;19927;-80
2022/07/25 08:37:59;;;;;;;;;;;22.90;99.90;;;;;;5117723;27;20007;-80
2022/07/25 08:40:26;;;;;;;;;;;23.00;99.90;;;;;;5117551;27;19927;-80
2022/07/25 08:42:53;;;;;;;;;;;23.00;99.90;;;;;;5134777;27;19930;-80
2022/07/25 08:45:20;;;;;;;;;;;23.10;99.90;;;;;;5117193;27;19923;-81
2022/07/25 08:47:46;;;;;;;;;;;23.00;99.90;;;;;;5117426;27;19934;-80
2022/07/25 08:50:13;;;;;;;;;;;22.70;99.90;;;;;;5134197;27;19930;-80
2022/07/25 08:52:41;;;;;;;;;;;22.60;99.90;;;;;;5134136;27;19930;-80
2022/07/25 08:55:08;;;;;;;;;;;22.40;99.90;;;;;;5117343;27;20260;-80
2022/07/25 08:57:34;;;;;;;;;;;22.30;99.90;;;;;;5133940;27;20385;-80
2022/07/25 09:00:00;;;;;;;;;;;22.20;99.90;;;;;;5134427;27;19924;-80
2022/07/25 09:02:26;;;;;;;;;;;21.90;99.90;;;;;;5134249;27;19924;-81
2022/07/25 09:04:52;;;;;;;;;;;21.80;99.90;;;;;;5117373;27;19930;-80
2022/07/25 09:07:30;;;;;;;;;;;21.70;99.90;;;;;;5116971;27;20014;-81
2022/07/25 09:09:56;;;;;;;;;;;21.60;99.90;;;;;;5117170;27;20025;-81
2022/07/25 09:12:25;;;;;;;;;;;21.70;99.90;;;;;;5099599;27;20018;-80
2022/07/25 09:14:51;;;;;;;;;;;21.70;99.90;;;;;;5117151;27;19924;-80
2022/07/25 09:17:17;;;;;;;;;;;21.70;99.90;;;;;;5099480;27;19923;-87
2022/07/25 09:19:50;;;;;;;;;;;21.80;99.90;;;;;;5116922;27;19924;-80
2022/07/25 09:22:16;;;;;;;;;;;21.90;99.90;;;;;;5116911;27;20371;-81
2022/07/25 09:24:44;;;;;;;;;;;22.10;99.90;;;;;;5133830;27;19923;-80
2022/07/25 09:27:10;;;;;;;;;;;22.10;99.90;;;;;;5116895;27;20282;-81
2022/07/25 09:29:37;;;;;;;;;;;22.20;99.90;;;;;;5133697;27;19923;-80
2022/07/25 09:32:13;;;;;;;;;;;22.30;99.90;;;;;;5133586;27;20026;-80
2022/07/25 09:34:40;;;;;;;;;;;22.30;99.90;;;;;;5116514;27;20436;-80
2022/07/25 09:37:07;;;;;;;;;;;22.40;99.90;;;;;;5133740;27;19923;-80
2022/07/25 09:39:32;;;;;;;;;;;22.40;99.90;;;;;;5116415;27;19924;-80
2022/07/25 09:41:58;;;;;;;;;;;22.30;99.90;;;;;;5133717;27;19943;-81
2022/07/25 09:44:29;;;;;;;;;;;22.30;99.90;;;;;;5133501;27;19930;-81
2022/07/25 09:46:55;;;;;;;;;;;22.40;99.90;;;;;;5116618;27;19930;-81
2022/07/25 09:49:21;;;;;;;;;;;22.60;99.90;;;;;;5116403;28;19923;-90
2022/07/25 09:51:47;;;;;;;;;;;22.70;99.90;;;;;;5116210;27;19923;-81
2022/07/25 09:54:13;;;;;;;;;;;22.60;99.90;;;;;;5116514;28;19924;-80
2022/07/25 09:56:38;;;;;;;;;;;22.70;99.90;;;;;;5116352;28;19990;-81
2022/07/25 09:59:04;;;;;;;;;;;22.80;99.90;;;;;;5116537;28;19923;-81
2022/07/25 10:01:41;;;;;;;;;;;23.00;99.90;;;;;;5116222;27;20332;-81
2022/07/25 10:04:29;;;;;;;;;;;23.20;99.90;;;;;;5119422;27;19930;-82
2022/07/25 10:07:08;;;;;;;;;;;23.30;99.90;;;;;;5137897;27;20278;-82
2022/07/25 10:09:41;;;;;;;;;;;23.50;99.90;;;;;;5120456;27;19933;-81
2022/07/25 10:12:08;;;;;;;;;;;23.50;99.90;;;;;;5120214;27;19923;-81
2022/07/25 10:14:35;;;;;;;;;;;23.40;99.90;;;;;;5137169;27;20367;-81
2022/07/25 10:17:02;;;;;;;;;;;23.30;99.90;;;;;;5120005;27;19947;-80
2022/07/25 10:19:49;;;;;;;;;;;23.00;99.90;;;;;;5137556;27;19972;-81
2022/07/25 10:22:14;;;;;;;;;;;23.00;99.90;;;;;;5120346;27;19972;-80
2022/07/25 10:24:44;;;;;;;;;;;22.80;99.90;;;;;;5119842;27;19923;-81
2022/07/25 10:27:11;;;;;;;;;;;22.80;99.90;;;;;;5137374;27;20419;-80
2022/07/25 10:29:38;;;;;;;;;;;23.10;99.90;;;;;;5137149;27;19948;-81
2022/07/25 10:32:04;;;;;;;;;;;23.20;99.90;;;;;;5137039;27;19923;-81
2022/07/25 10:34:30;;;;;;;;;;;23.40;99.90;;;;;;5120031;27;19972;-80
2022/07/25 10:36:56;;;;;;;;;;;23.30;99.90;;;;;;5119744;27;19923;-81
2022/07/25 10:39:22;;;;;;;;;;;23.20;99.90;;;;;;5119774;27;20026;-80
2022/07/25 10:41:50;;;;;;;;;;;23.00;99.90;;;;;;5119855;27;19927;-81
2022/07/25 10:44:15;;;;;;;;;;;22.70;99.90;;;;;;5137096;27;19930;-80
2022/07/25 10:46:45;;;;;;;;;;;22.50;99.90;;;;;;5136804;27;19923;-81
2022/07/25 10:49:21;;;;;;;;;;;22.40;99.90;;;;;;5136949;27;19962;-81
2022/07/25 10:51:58;;;;;;;;;;;22.40;99.90;;;;;;5119453;27;19924;-80
2022/07/25 10:54:23;;;;;;;;;;;22.30;99.90;;;;;;5137100;27;19983;-80
2022/07/25 10:56:50;;;;;;;;;;;22.30;99.90;;;;;;5119325;27;20449;-81
2022/07/25 10:59:24;;;;;;;;;;;22.30;99.90;;;;;;5119624;27;19930;-81
2022/07/25 11:01:49;;;;;;;;;;;22.30;99.90;;;;;;5136947;27;20396;-81
2022/07/25 11:04:15;;;;;;;;;;;22.30;99.90;;;;;;5119597;27;20359;-80
2022/07/25 11:06:41;;;;;;;;;;;22.40;99.90;;;;;;5136209;27;19923;-81
2022/07/25 11:09:13;;;;;;;;;;;22.40;99.90;;;;;;5136736;27;20262;-80
2022/07/25 11:11:41;;;;;;;;;;;22.40;99.90;;;;;;5119059;27;20294;-81
2022/07/25 11:14:18;;;;;;;;;;;22.30;99.90;;;;;;5119107;27;19969;-82
2022/07/25 11:16:45;;;;;;;;;;;22.40;99.90;;;;;;5136049;27;19924;-80
2022/07/25 11:19:23;;;;;;;;;;;22.60;99.90;;;;;;5119238;27;19942;-80
2022/07/25 11:21:50;;;;;;;;;;;22.70;99.90;;;;;;5136196;27;20034;-81
2022/07/25 11:24:15;;;;;;;;;;;23.00;99.90;;;;;;5119364;27;20014;-80
2022/07/25 11:26:45;;;;;;;;;;;23.10;99.90;;;;;;5119947;27;19979;-80
2022/07/25 11:29:17;;;;;;;;;;;23.10;99.90;;;;;;5119045;27;19923;-80
2022/07/25 11:31:42;;;;;;;;;;;23.10;99.90;;;;;;5135904;27;19970;-81
2022/07/25 11:34:08;;;;;;;;;;;22.90;99.90;;;;;;5135755;27;19970;-81
2022/07/25 11:36:34;;;;;;;;;;;22.80;99.90;;;;;;5101894;27;19928;-80
2022/07/25 11:39:00;;;;;;;;;;;22.60;99.90;;;;;;5101952;27;19928;-81
2022/07/25 11:41:29;;;;;;;;;;;22.50;99.90;;;;;;5136008;27;19973;-81
2022/07/25 11:43:54;;;;;;;;;;;22.70;99.90;;;;;;5135725;27;20010;-81
2022/07/25 11:46:20;;;;;;;;;;;22.90;99.90;;;;;;5137990;27;19966;-80
2022/07/25 11:48:46;;;;;;;;;;;23.30;99.90;;;;;;5135970;27;20407;-81
2022/07/25 11:51:14;;;;;;;;;;;24.00;99.90;;;;;;5135606;27;19923;-80
2022/07/25 11:53:44;;;;;;;;;;;23.90;99.90;;;;;;5118488;27;19972;-81
2022/07/25 11:56:18;;;;;;;;;;;23.90;99.90;;;;;;5118581;27;19924;-80
2022/07/25 11:58:57;;;;;;;;;;;23.70;99.90;;;;;;5135122;27;19949;-81
2022/07/25 12:01:23;;;;;;;;;;;23.90;99.90;;;;;;5135647;27;19973;-80
2022/07/25 12:03:49;;;;;;;;;;;24.00;99.90;;;;;;5118288;27;19924;-81
2022/07/25 12:06:15;;;;;;;;;;;24.40;99.90;;;;;;5118290;27;19924;-80
2022/07/25 12:08:41;;;;;;;;;;;24.80;99.90;;;;;;5117911;27;20290;-81
2022/07/25 12:11:20;;;;;;;;;;;24.70;99.90;;;;;;5117914;27;20371;-81
2022/07/25 12:13:46;;;;;;;;;;;24.60;99.90;;;;;;5118179;27;20003;-81
2022/07/25 12:16:12;;;;;;;;;;;24.70;99.90;;;;;;5117814;27;19923;-81
2022/07/25 12:18:38;;;;;;;;;;;25.40;99.90;;;;;;5117790;27;20386;-81
2022/07/25 12:21:03;;;;;;;;;;;25.90;99.90;;;;;;5118029;27;19927;-80
2022/07/25 12:23:29;;;;;;;;;;;25.80;99.90;;;;;;5118011;27;19991;-80
2022/07/25 12:25:55;;;;;;;;;;;25.40;99.90;;;;;;5134175;27;20014;-82
2022/07/25 12:28:20;;;;;;;;;;;25.00;99.90;;;;;;5118143;27;20260;-81
2022/07/25 12:30:46;;;;;;;;;;;25.40;99.90;;;;;;5117610;27;19924;-81
2022/07/25 12:33:11;;;;;;;;;;;25.90;99.90;;;;;;5134946;27;19923;-80
2022/07/25 12:35:39;;;;;;;;;;;26.50;99.90;;;;;;5134975;27;19979;-80
2022/07/25 12:38:04;;;;;;;;;;;26.60;99.90;;;;;;5134721;27;19930;-81
2022/07/25 12:40:30;;;;;;;;;;;26.20;99.90;;;;;;5134839;27;19923;-81
2022/07/25 12:42:56;;;;;;;;;;;26.20;99.90;;;;;;5134614;27;19930;-81
2022/07/25 12:45:22;;;;;;;;;;;26.30;99.90;;;;;;5100961;27;19924;-81
2022/07/25 12:47:48;;;;;;;;;;;26.30;99.90;;;;;;5134594;27;19924;-81
2022/07/25 12:50:14;;;;;;;;;;;26.60;99.90;;;;;;5134261;27;19930;-82
2022/07/25 12:52:40;;;;;;;;;;;26.90;99.90;;;;;;5117019;27;19930;-80
2022/07/25 12:55:06;;;;;;;;;;;26.90;99.90;;;;;;5117182;27;20009;-81
2022/07/25 12:57:32;;;;;;;;;;;27.20;99.90;;;;;;5117052;27;20394;-81
2022/07/25 12:59:57;;;;;;;;;;;27.30;99.90;;;;;;5134196;27;19923;-81
2022/07/25 13:02:23;;;;;;;;;;;27.00;99.90;;;;;;5117282;27;19923;-81
2022/07/25 13:04:48;;;;;;;;;;;26.80;99.90;;;;;;5100105;27;19928;-81
2022/07/25 13:07:14;;;;;;;;;;;26.70;99.90;;;;;;5117118;27;20412;-80
2022/07/25 13:09:40;;;;;;;;;;;27.00;99.90;;;;;;5134315;27;19959;-81
2022/07/25 13:12:06;;;;;;;;;;;26.70;99.90;;;;;;5133731;27;20381;-80
2022/07/25 13:14:32;;;;;;;;;;;26.90;99.90;;;;;;5100028;27;19930;-80
2022/07/25 13:16:57;;;;;;;;;;;27.00;99.90;;;;;;5133237;27;19930;-81
2022/07/25 13:19:23;;;;;;;;;;;26.80;99.90;;;;;;5100216;27;20010;-81
2022/07/25 13:21:48;;;;;;;;;;;26.70;99.90;;;;;;5099781;27;20430;-81
2022/07/25 13:24:14;;;;;;;;;;;26.30;99.90;;;;;;5133722;27;19924;-80
2022/07/25 13:26:40;;;;;;;;;;;25.50;99.90;;;;;;5116834;27;19924;-81
2022/07/25 13:29:10;;;;;;;;;;;25.10;99.90;;;;;;5116332;27;19931;-80
2022/07/25 13:31:39;;;;;;;;;;;25.30;99.90;;;;;;5116609;27;19927;-80
2022/07/25 13:34:05;;;;;;;;;;;25.60;99.90;;;;;;5116492;27;20006;-79
2022/07/25 13:36:31;;;;;;;;;;;25.50;99.90;;;;;;5099669;27;20436;-79
2022/07/25 13:38:57;;;;;;;;;;;25.70;99.90;;;;;;5116442;27;19970;-81
2022/07/25 13:41:23;;;;;;;;;;;26.20;99.90;;;;;;5099874;27;20016;-80
2022/07/25 13:43:48;;;;;;;;;;;26.40;99.90;;;;;;5133657;27;20375;-80
2022/07/25 13:46:14;;;;;;;;;;;26.20;99.90;;;;;;5133500;27;19931;-79
2022/07/25 13:48:39;;;;;;;;;;;25.90;99.90;;;;;;5116578;27;20408;-80
2022/07/25 13:51:05;;;;;;;;;;;25.40;99.90;;;;;;5116253;27;19988;-80
2022/07/25 13:53:30;;;;;;;;;;;25.20;99.90;;;;;;5116644;28;19946;-80
2022/07/25 13:55:57;;;;;;;;;;;25.10;99.90;;;;;;5099379;28;19930;-80
2022/07/25 13:58:22;;;;;;;;;;;25.60;99.90;;;;;;5133617;28;19989;-80
2022/07/25 14:00:48;;;;;;;;;;;26.20;99.90;;;;;;5133735;28;20364;-76
2022/07/25 14:03:14;;;;;;;;;;;26.30;99.90;;;;;;5133192;28;19927;-76
2022/07/25 14:05:39;;;;;;;;;;;26.70;99.90;;;;;;5133402;28;20022;-76
2022/07/25 14:08:06;;;;;;;;;;;26.70;99.90;;;;;;5116183;28;19923;-76
2022/07/25 14:10:32;;;;;;;;;;;26.40;99.90;;;;;;5133424;28;20283;-77
2022/07/25 14:12:58;;;;;;;;;;;26.20;99.90;;;;;;5115883;28;19947;-78
2022/07/25 14:15:23;;;;;;;;;;;26.00;99.90;;;;;;5133524;28;20339;-77